Time;durP1;ratioP1;P1;durP2;ratioP2;P2;SDS_P1;SDS_P2;PMS_P1;PMS_P2;Temp;Humidity;BMP_temperature;BMP_pressure;BME280_temperature;BME280_humidity;BME280_pressure;Samples;Min_cycle;Max_cycle;Signal;HPM_P1;HPM_P2
2023/01/17 00:01:59;;;;;;;1.67;1.33;;;1.90;99.90;;;;;;5022700;28;20540;-69
2023/01/17 00:09:58;;;;;;;9.00;1.50;;;1.70;99.90;;;;;;5011379;28;20439;-70
2023/01/17 00:12:27;;;;;;;2.73;2.00;;;1.70;99.90;;;;;;5011442;28;20520;-70
2023/01/17 00:14:54;;;;;;;1.53;1.43;;;1.70;99.90;;;;;;5003598;28;20798;-71
2023/01/17 00:17:21;;;;;;;2.73;1.73;;;1.70;99.90;;;;;;5011855;28;20473;-71
2023/01/17 01:35:11;;;;;;;1.73;1.63;;;1.60;99.90;;;;;;5021743;28;20925;-69
2023/01/17 01:37:37;;;;;;;3.80;2.53;;;1.70;99.90;;;;;;5018370;28;20450;-70
2023/01/17 01:40:03;;;;;;;2.00;1.43;;;1.70;99.90;;;;;;5015840;28;20625;-69
2023/01/17 01:42:28;;;;;;;1.50;1.40;;;1.70;99.90;;;;;;5023147;28;20186;-69
2023/01/17 01:44:54;;;;;;;3.50;2.30;;;1.70;99.90;;;;;;5022872;28;20926;-70
2023/01/17 01:47:27;;;;;;;3.00;2.40;;;1.80;99.90;;;;;;5020374;28;20289;-69
2023/01/17 01:49:53;;;;;;;3.23;1.83;;;1.80;99.90;;;;;;5017356;28;20442;-70
2023/01/17 01:52:22;;;;;;;2.13;1.80;;;1.90;99.90;;;;;;5022282;28;20483;-70
2023/01/17 01:54:54;;;;;;;3.60;2.10;;;1.90;99.90;;;;;;5016669;28;20191;-70
2023/01/17 01:57:23;;;;;;;3.27;2.20;;;1.90;99.90;;;;;;5023087;28;20460;-69
2023/01/17 01:59:57;;;;;;;2.93;2.17;;;2.00;99.90;;;;;;5016855;28;20812;-70
2023/01/17 02:02:22;;;;;;;2.30;1.90;;;2.00;99.90;;;;;;5013714;28;20452;-70
2023/01/17 02:04:48;;;;;;;3.17;2.33;;;1.90;99.90;;;;;;5023018;28;20440;-69
2023/01/17 02:07:20;;;;;;;4.10;2.40;;;1.90;99.90;;;;;;5020174;28;20221;-70
2023/01/17 02:09:46;;;;;;;3.60;2.87;;;1.90;99.90;;;;;;5018791;28;20488;-69
2023/01/17 02:12:12;;;;;;;2.80;1.50;;;2.00;99.90;;;;;;5011649;28;20838;-69
2023/01/17 02:14:38;;;;;;;2.57;1.90;;;2.00;99.90;;;;;;5022780;28;20459;-70
2023/01/17 02:17:30;;;;;;;3.90;2.40;;;2.00;99.90;;;;;;5013404;28;20489;-69
2023/01/17 02:20:49;;;;;;;2.60;1.70;;;2.00;99.90;;;;;;5012836;28;20270;-70
2023/01/17 02:23:52;;;;;;;4.07;2.23;;;2.00;99.90;;;;;;4951508;28;20451;-70
2023/01/17 02:26:42;;;;;;;2.90;1.93;;;2.00;99.90;;;;;;5007932;28;20536;-69
2023/01/17 02:29:35;;;;;;;6.17;2.30;;;1.90;99.90;;;;;;5006108;28;20425;-69
2023/01/17 02:32:16;;;;;;;2.60;1.93;;;2.00;99.90;;;;;;5003185;28;20482;-69
2023/01/17 02:35:03;;;;;;;2.33;2.07;;;2.00;99.90;;;;;;5009116;28;20583;-69
2023/01/17 02:37:38;;;;;;;3.63;1.80;;;2.00;99.90;;;;;;5010006;28;20488;-70
2023/01/17 02:40:29;;;;;;;2.20;2.00;;;2.00;99.90;;;;;;5007214;28;20499;-69
2023/01/17 02:43:01;;;;;;;2.20;1.53;;;2.00;99.90;;;;;;5017504;28;20965;-69
2023/01/17 02:45:28;;;;;;;3.10;2.87;;;2.00;99.90;;;;;;5005622;28;20441;-69
2023/01/17 02:47:53;;;;;;;2.40;2.00;;;2.00;99.90;;;;;;5013626;28;20453;-69
2023/01/17 02:50:22;;;;;;;2.37;1.73;;;2.00;99.90;;;;;;5024388;28;20479;-69
2023/01/17 02:53:08;;;;;;;4.97;1.50;;;2.00;99.90;;;;;;5013998;28;20211;-69
2023/01/17 02:55:52;;;;;;;3.93;1.83;;;2.00;99.90;;;;;;5014404;28;20451;-70
2023/01/17 02:58:45;;;;;;;2.43;2.00;;;2.00;99.90;;;;;;5021471;28;20802;-69
2023/01/17 03:01:37;;;;;;;1.70;1.57;;;2.00;99.90;;;;;;5023722;28;20475;-70
2023/01/17 03:04:10;;;;;;;1.37;1.23;;;2.00;99.90;;;;;;4975941;28;20445;-69
2023/01/17 03:06:42;;;;;;;1.63;1.10;;;2.00;99.90;;;;;;5011922;28;21040;-69
2023/01/17 03:09:09;;;;;;;1.87;1.60;;;1.90;99.90;;;;;;5014338;28;21066;-69
2023/01/17 03:11:35;;;;;;;1.50;1.40;;;2.00;99.90;;;;;;5012075;28;20482;-69
2023/01/17 03:14:00;;;;;;;4.20;1.80;;;2.00;99.90;;;;;;5012336;28;20500;-69
2023/01/17 03:16:30;;;;;;;1.77;1.63;;;2.00;99.90;;;;;;5012197;28;20478;-69
2023/01/17 03:18:55;;;;;;;1.97;1.67;;;2.00;99.90;;;;;;5010388;28;20257;-70
2023/01/17 03:21:22;;;;;;;1.60;1.50;;;2.00;99.90;;;;;;5012272;28;20465;-69
2023/01/17 03:23:48;;;;;;;1.40;1.30;;;2.00;99.90;;;;;;5018711;28;20632;-69
2023/01/17 03:26:13;;;;;;;1.73;1.63;;;2.00;99.90;;;;;;5009727;28;20540;-70
2023/01/17 03:28:39;;;;;;;2.47;1.40;;;2.10;99.90;;;;;;5012038;28;20191;-69
2023/01/17 03:31:04;;;;;;;1.97;1.60;;;2.10;99.90;;;;;;5011843;28;20210;-69
2023/01/17 03:33:30;;;;;;;2.10;1.70;;;2.10;99.90;;;;;;5017842;28;20162;-69
2023/01/17 03:35:57;;;;;;;2.73;1.80;;;2.10;99.90;;;;;;5009608;28;20199;-69
2023/01/17 03:38:26;;;;;;;1.60;1.43;;;2.00;99.90;;;;;;5011326;28;20186;-69
2023/01/17 03:40:52;;;;;;;3.30;1.40;;;2.00;99.90;;;;;;5010245;28;21225;-69
2023/01/17 03:43:18;;;;;;;2.77;1.70;;;1.90;99.90;;;;;;5011510;28;20441;-69
2023/01/17 03:45:44;;;;;;;1.73;1.30;;;1.90;99.90;;;;;;5012620;28;20221;-69
2023/01/17 03:48:09;;;;;;;1.80;1.57;;;1.90;99.90;;;;;;5015936;28;20213;-69
2023/01/17 03:50:35;;;;;;;3.33;2.23;;;1.90;99.90;;;;;;5005328;28;20210;-69
2023/01/17 03:53:01;;;;;;;2.20;1.83;;;1.90;99.90;;;;;;5011753;28;20206;-69
2023/01/17 03:55:26;;;;;;;3.40;1.70;;;1.90;99.90;;;;;;5012390;28;20213;-69
2023/01/17 03:57:51;;;;;;;1.77;1.67;;;1.90;99.90;;;;;;5009360;28;20210;-69
2023/01/17 04:00:17;;;;;;;3.57;1.77;;;1.90;99.90;;;;;;5010208;28;20270;-69
2023/01/17 04:02:43;;;;;;;2.70;1.80;;;1.90;99.90;;;;;;5011319;28;20198;-69
2023/01/17 04:05:08;;;;;;;2.17;1.90;;;1.90;99.90;;;;;;5012252;28;20190;-69
2023/01/17 04:07:34;;;;;;;4.23;1.50;;;1.90;99.90;;;;;;5013958;28;20202;-69
2023/01/17 04:09:59;;;;;;;1.90;1.40;;;1.90;99.90;;;;;;5004889;28;20187;-69
2023/01/17 04:12:25;;;;;;;1.90;1.60;;;1.90;99.90;;;;;;5015516;28;20310;-69
2023/01/17 04:14:50;;;;;;;2.40;1.67;;;1.90;99.90;;;;;;5010975;28;20194;-69
2023/01/17 04:17:18;;;;;;;1.97;1.80;;;1.90;99.90;;;;;;5009452;28;20233;-69
2023/01/17 04:19:44;;;;;;;2.00;1.77;;;1.90;99.90;;;;;;5010268;28;20617;-69
2023/01/17 04:22:10;;;;;;;3.90;1.97;;;1.80;99.90;;;;;;5010313;28;20525;-69
2023/01/17 04:24:35;;;;;;;2.60;2.13;;;1.70;99.90;;;;;;5011203;28;20533;-69
2023/01/17 04:27:03;;;;;;;5.37;2.27;;;1.70;99.90;;;;;;5010126;28;20206;-69
2023/01/17 04:29:28;;;;;;;1.97;1.80;;;1.70;99.90;;;;;;5007573;28;20184;-69
2023/01/17 04:31:54;;;;;;;2.73;2.23;;;1.70;99.90;;;;;;5010088;28;20476;-69
2023/01/17 04:34:20;;;;;;;2.27;2.07;;;1.80;99.90;;;;;;5017415;28;20191;-69
2023/01/17 04:36:45;;;;;;;2.20;1.90;;;1.80;99.90;;;;;;5007622;28;20691;-70
2023/01/17 04:39:11;;;;;;;2.03;1.90;;;1.80;99.90;;;;;;5009214;28;20201;-69
2023/01/17 04:41:36;;;;;;;2.10;1.70;;;1.80;99.90;;;;;;5021531;28;20192;-69
2023/01/17 04:44:03;;;;;;;3.10;1.90;;;1.80;99.90;;;;;;5022558;28;20216;-69
2023/01/17 04:46:28;;;;;;;6.10;2.30;;;1.80;99.90;;;;;;5020397;28;20640;-69
2023/01/17 04:48:54;;;;;;;2.87;2.27;;;1.90;99.90;;;;;;5019847;28;20465;-69
2023/01/17 04:51:19;;;;;;;2.30;1.93;;;1.80;99.90;;;;;;5022537;28;20339;-70
2023/01/17 04:53:45;;;;;;;3.07;2.77;;;1.90;99.90;;;;;;5016963;28;20625;-70
2023/01/17 04:56:10;;;;;;;2.73;2.53;;;1.80;99.90;;;;;;5015846;28;20202;-69
2023/01/17 04:58:36;;;;;;;2.50;1.97;;;1.80;99.90;;;;;;5018423;28;20182;-69
2023/01/17 05:01:03;;;;;;;5.50;2.70;;;1.80;99.90;;;;;;5022538;28;20545;-69
2023/01/17 05:03:29;;;;;;;7.03;2.37;;;1.80;99.90;;;;;;5015752;28;20276;-69
2023/01/17 05:05:55;;;;;;;5.43;2.03;;;1.80;99.90;;;;;;5018785;28;21794;-69
2023/01/17 05:08:20;;;;;;;3.30;2.80;;;1.80;99.90;;;;;;5022793;28;20540;-69
2023/01/17 05:10:46;;;;;;;2.40;2.20;;;1.90;99.90;;;;;;5015633;28;20209;-69
2023/01/17 05:13:12;;;;;;;4.20;1.83;;;1.90;99.90;;;;;;5014738;28;20184;-69
2023/01/17 05:15:38;;;;;;;2.33;2.13;;;1.90;99.90;;;;;;5022301;28;20181;-69
2023/01/17 05:18:07;;;;;;;4.73;3.00;;;2.00;99.90;;;;;;5022578;28;20182;-69
2023/01/17 05:20:34;;;;;;;3.13;2.70;;;2.00;99.90;;;;;;4997577;28;20180;-69
2023/01/17 05:23:00;;;;;;;7.23;3.03;;;1.90;99.90;;;;;;5010820;28;20437;-69
2023/01/17 05:25:30;;;;;;;2.30;2.03;;;1.90;99.90;;;;;;5009289;28;20452;-68
2023/01/17 05:27:58;;;;;;;3.97;2.33;;;1.90;99.90;;;;;;5013798;28;20179;-69
2023/01/17 05:30:24;;;;;;;4.70;2.23;;;2.00;99.90;;;;;;5010556;28;20479;-69
2023/01/17 05:32:51;;;;;;;2.87;2.10;;;2.00;99.90;;;;;;5011476;28;20517;-68
2023/01/17 05:35:19;;;;;;;2.87;2.60;;;2.00;99.90;;;;;;5020145;28;20868;-69
2023/01/17 05:37:49;;;;;;;4.07;2.40;;;2.00;99.90;;;;;;5012885;28;20492;-69
2023/01/17 05:40:20;;;;;;;3.30;2.30;;;2.00;99.90;;;;;;5011959;28;20548;-69
2023/01/17 05:42:47;;;;;;;2.60;2.10;;;2.00;99.90;;;;;;5007236;28;20445;-69
2023/01/17 05:45:15;;;;;;;4.50;3.00;;;2.00;99.90;;;;;;5010278;28;20830;-69
2023/01/17 05:47:42;;;;;;;3.00;2.57;;;1.90;99.90;;;;;;5017781;28;20461;-69
2023/01/17 05:50:10;;;;;;;6.13;3.10;;;1.90;99.90;;;;;;5009978;28;20463;-69
2023/01/17 05:52:35;;;;;;;3.60;2.83;;;1.90;99.90;;;;;;5011490;28;20853;-69
2023/01/17 05:55:01;;;;;;;3.93;3.30;;;2.00;99.90;;;;;;5007160;28;20433;-68
2023/01/17 05:57:26;;;;;;;5.77;3.60;;;2.00;99.90;;;;;;5008411;28;20226;-69
2023/01/17 05:59:52;;;;;;;3.40;3.10;;;1.90;99.90;;;;;;5006499;28;20183;-69
2023/01/17 06:02:17;;;;;;;6.03;4.40;;;1.90;99.90;;;;;;5010725;28;20214;-69
2023/01/17 06:04:43;;;;;;;6.10;2.73;;;1.80;99.90;;;;;;5009929;28;20652;-69
2023/01/17 06:07:08;;;;;;;5.87;2.90;;;1.80;99.90;;;;;;5010268;28;20242;-69
2023/01/17 06:09:34;;;;;;;3.17;2.40;;;1.80;99.90;;;;;;5014292;28;20265;-68
2023/01/17 06:11:59;;;;;;;4.20;2.80;;;1.80;99.90;;;;;;5007738;28;20214;-68
2023/01/17 06:14:24;;;;;;;5.03;2.50;;;1.80;99.90;;;;;;5011296;28;20538;-69
2023/01/17 06:16:50;;;;;;;2.57;2.37;;;1.70;99.90;;;;;;5006689;28;20337;-68
2023/01/17 06:19:15;;;;;;;5.70;2.70;;;1.70;99.90;;;;;;5013653;28;20179;-70
2023/01/17 06:21:41;;;;;;;3.63;2.30;;;1.60;99.90;;;;;;5014165;28;20198;-70
2023/01/17 06:24:06;;;;;;;4.27;2.47;;;1.60;99.90;;;;;;5010247;28;20281;-69
2023/01/17 06:26:32;;;;;;;3.57;2.77;;;1.60;99.90;;;;;;5021093;28;20280;-69
2023/01/17 06:28:57;;;;;;;3.43;3.13;;;1.60;99.90;;;;;;5021961;28;20256;-70
2023/01/17 06:31:23;;;;;;;2.80;2.57;;;1.60;99.90;;;;;;5031377;28;20210;-69
2023/01/17 06:33:48;;;;;;;2.93;2.03;;;1.60;99.90;;;;;;5028637;28;20178;-69
2023/01/17 06:36:14;;;;;;;2.57;2.37;;;1.60;99.90;;;;;;5023681;28;20199;-69
2023/01/17 06:38:39;;;;;;;8.60;3.10;;;1.50;99.90;;;;;;5014328;28;20217;-69
2023/01/17 06:41:05;;;;;;;4.60;3.27;;;1.50;99.90;;;;;;5011346;28;20194;-69
2023/01/17 06:43:32;;;;;;;6.70;4.67;;;1.40;99.90;;;;;;5015241;28;20198;-69
2023/01/17 06:45:58;;;;;;;4.30;3.53;;;1.40;99.90;;;;;;5015372;28;20187;-69
2023/01/17 06:48:24;;;;;;;6.07;4.40;;;1.40;99.90;;;;;;5014670;28;20864;-68
2023/01/17 06:50:49;;;;;;;7.43;4.23;;;1.40;99.90;;;;;;5015284;28;20449;-69
2023/01/17 06:53:15;;;;;;;5.33;2.80;;;1.40;99.90;;;;;;5015375;28;20178;-68
2023/01/17 06:55:42;;;;;;;4.90;3.10;;;1.40;99.90;;;;;;5015184;28;20257;-69
2023/01/17 06:58:08;;;;;;;10.53;4.13;;;1.50;99.90;;;;;;5015053;28;20163;-68
2023/01/17 07:00:34;;;;;;;4.73;3.87;;;1.50;99.90;;;;;;4997077;28;21010;-69
2023/01/17 07:03:00;;;;;;;6.30;3.80;;;1.50;99.90;;;;;;5015120;28;20501;-69
2023/01/17 07:05:27;;;;;;;6.80;3.30;;;1.50;99.90;;;;;;5015083;28;20432;-69
2023/01/17 07:07:53;;;;;;;5.20;3.80;;;1.60;99.90;;;;;;5014950;28;20488;-69
2023/01/17 07:10:19;;;;;;;6.53;3.47;;;1.60;99.90;;;;;;5014021;28;20422;-66
2023/01/17 07:12:50;;;;;;;7.07;4.23;;;1.60;99.90;;;;;;5014584;28;20489;-66
2023/01/17 07:15:16;;;;;;;7.97;4.57;;;1.70;99.90;;;;;;4997358;28;20183;-68
2023/01/17 07:17:42;;;;;;;8.10;3.67;;;1.60;99.90;;;;;;4995109;28;20491;-68
2023/01/17 07:20:08;;;;;;;5.53;3.60;;;1.70;99.90;;;;;;4981712;28;21164;-68
2023/01/17 07:22:36;;;;;;;5.10;4.33;;;1.60;99.90;;;;;;5011374;28;20183;-70
2023/01/17 07:25:02;;;;;;;7.03;3.90;;;1.60;99.90;;;;;;5006173;28;20466;-69
2023/01/17 07:27:29;;;;;;;7.97;3.63;;;1.60;99.90;;;;;;5003107;28;20485;-69
2023/01/17 07:29:55;;;;;;;5.57;4.30;;;1.60;99.90;;;;;;5007853;28;20774;-68
2023/01/17 07:32:21;;;;;;;4.10;3.70;;;1.70;99.90;;;;;;5010717;28;20473;-70
2023/01/17 07:34:47;;;;;;;7.43;3.60;;;1.80;99.90;;;;;;5014290;28;20421;-69
2023/01/17 07:37:13;;;;;;;4.30;3.90;;;1.80;99.90;;;;;;5004497;28;20206;-69
2023/01/17 07:39:38;;;;;;;4.83;3.30;;;1.80;99.90;;;;;;5004420;28;20536;-70
2023/01/17 07:42:04;;;;;;;5.93;3.90;;;1.90;99.90;;;;;;5011775;28;20533;-70
2023/01/17 07:44:29;;;;;;;5.47;4.10;;;1.80;99.90;;;;;;5002560;28;20193;-70
2023/01/17 07:46:55;;;;;;;5.10;3.63;;;1.80;99.90;;;;;;5013339;28;20199;-69
2023/01/17 07:49:20;;;;;;;3.77;3.47;;;1.90;99.90;;;;;;5009682;28;20194;-70
2023/01/17 07:51:46;;;;;;;4.40;3.40;;;1.90;99.90;;;;;;5014042;28;20207;-70
2023/01/17 07:54:12;;;;;;;5.23;3.50;;;2.00;99.90;;;;;;5012845;28;20269;-70
2023/01/17 07:56:38;;;;;;;5.93;3.30;;;2.10;99.90;;;;;;5013756;28;20190;-70
2023/01/17 07:59:05;;;;;;;5.83;4.77;;;2.10;99.90;;;;;;5009842;28;20179;-70
2023/01/17 08:01:30;;;;;;;13.53;5.40;;;2.10;99.90;;;;;;5003187;28;20430;-70
2023/01/17 08:03:56;;;;;;;10.60;4.73;;;2.20;99.90;;;;;;5010853;28;20437;-69
2023/01/17 08:06:24;;;;;;;7.70;4.83;;;2.10;99.90;;;;;;5011721;28;20277;-70
2023/01/17 08:08:50;;;;;;;10.60;5.40;;;2.10;99.90;;;;;;5007968;28;20237;-70
2023/01/17 08:11:15;;;;;;;18.03;4.97;;;2.30;99.90;;;;;;5013550;28;20974;-70
2023/01/17 08:13:41;;;;;;;13.77;4.80;;;2.40;99.90;;;;;;4995325;28;20456;-70
2023/01/17 08:16:10;;;;;;;15.73;4.80;;;2.50;99.90;;;;;;5012728;28;20222;-70
2023/01/17 08:18:36;;;;;;;14.83;4.87;;;2.70;99.90;;;;;;5009226;28;20286;-70
2023/01/17 08:21:01;;;;;;;6.30;4.90;;;2.90;99.90;;;;;;5012410;28;20477;-69
2023/01/17 08:23:27;;;;;;;8.93;4.80;;;3.20;99.90;;;;;;5012958;28;20175;-70
2023/01/17 08:25:52;;;;;;;8.73;4.13;;;3.30;99.90;;;;;;5012516;28;20201;-69
2023/01/17 08:28:18;;;;;;;4.53;3.50;;;3.50;99.90;;;;;;5008867;28;20265;-70
2023/01/17 08:30:44;;;;;;;6.37;4.60;;;3.60;99.90;;;;;;5013001;28;20202;-70
2023/01/17 08:33:10;;;;;;;4.77;4.27;;;3.70;99.90;;;;;;5003577;28;20906;-70
2023/01/17 08:35:35;;;;;;;7.57;4.30;;;3.70;99.90;;;;;;5012018;28;20429;-70
2023/01/17 08:38:03;;;;;;;8.17;4.70;;;3.90;99.90;;;;;;5005803;28;20652;-69
2023/01/17 08:40:31;;;;;;;5.63;4.40;;;4.10;99.90;;;;;;5010692;28;20237;-69
2023/01/17 08:42:58;;;;;;;6.40;4.43;;;4.20;99.90;;;;;;5012837;28;20441;-70
2023/01/17 08:45:24;;;;;;;6.30;4.10;;;4.30;99.90;;;;;;5012256;28;20430;-69
2023/01/17 08:47:50;;;;;;;6.50;5.40;;;4.50;99.90;;;;;;5009251;28;20555;-72
2023/01/17 08:50:19;;;;;;;6.73;5.00;;;4.80;99.90;;;;;;5011858;28;20426;-69
2023/01/17 08:52:48;;;;;;;6.47;4.10;;;4.90;99.90;;;;;;5011995;28;20445;-69
2023/01/17 08:55:14;;;;;;;13.90;6.07;;;5.10;99.90;;;;;;5012373;28;20434;-69
2023/01/17 08:57:40;;;;;;;4.27;3.87;;;5.20;99.90;;;;;;5009080;28;20819;-67
2023/01/17 09:00:06;;;;;;;4.40;3.57;;;5.60;99.90;;;;;;5011120;28;20209;-67
2023/01/17 09:02:32;;;;;;;5.37;3.57;;;6.10;99.90;;;;;;5012542;28;20182;-74
2023/01/17 09:04:59;;;;;;;4.87;3.80;;;6.10;99.90;;;;;;5010997;28;20437;-74
2023/01/17 09:07:25;;;;;;;4.77;3.43;;;5.90;99.90;;;;;;5009253;28;20273;-74
2023/01/17 09:09:51;;;;;;;5.13;4.40;;;5.60;99.90;;;;;;5010801;28;20444;-75
2023/01/17 09:12:19;;;;;;;3.87;3.50;;;5.50;99.90;;;;;;5010938;28;20466;-72
2023/01/17 09:14:44;;;;;;;4.60;3.20;;;5.60;99.90;;;;;;5012621;28;20441;-74
2023/01/17 09:17:10;;;;;;;6.20;4.03;;;6.00;99.90;;;;;;5009957;28;20500;-73
2023/01/17 09:19:37;;;;;;;5.60;3.27;;;6.90;99.90;;;;;;5009118;28;20487;-73
2023/01/17 09:22:05;;;;;;;3.40;3.10;;;8.70;99.90;;;;;;5010627;28;20261;-74
2023/01/17 09:24:31;;;;;;;4.10;3.37;;;10.30;99.90;;;;;;5011232;28;20442;-74
2023/01/17 09:26:57;;;;;;;4.77;3.27;;;11.60;99.90;;;;;;5012112;28;20441;-74
2023/01/17 09:29:22;;;;;;;5.20;3.50;;;13.40;99.90;;;;;;4995711;28;20434;-74
2023/01/17 09:31:48;;;;;;;3.40;3.10;;;14.10;99.90;;;;;;4992428;28;20250;-74
2023/01/17 09:34:13;;;;;;;3.70;3.30;;;14.30;96.90;;;;;;4992369;28;20239;-74
2023/01/17 09:36:40;;;;;;;7.20;2.73;;;13.20;98.70;;;;;;5000698;28;20191;-73
2023/01/17 09:39:07;;;;;;;4.03;2.73;;;12.00;99.90;;;;;;5005037;28;20769;-74
2023/01/17 09:41:54;;;;;;;3.43;2.63;;;10.90;99.90;;;;;;5011216;28;20441;-74
2023/01/17 09:44:28;;;;;;;14.67;3.50;;;10.20;99.90;;;;;;4993461;28;20423;-73
2023/01/17 09:46:58;;;;;;;3.87;3.10;;;9.90;99.90;;;;;;4991739;28;21092;-73
2023/01/17 09:49:44;;;;;;;5.60;3.33;;;11.20;99.90;;;;;;5006069;28;20432;-73
2023/01/17 09:52:17;;;;;;;2.30;2.10;;;13.00;99.90;;;;;;4993862;28;20985;-74
2023/01/17 09:54:45;;;;;;;2.70;2.50;;;14.20;94.80;;;;;;5011619;28;20417;-74
2023/01/17 09:57:19;;;;;;;4.10;2.57;;;15.80;90.90;;;;;;5008961;28;20452;-75
2023/01/17 10:00:01;;;;;;;3.00;2.70;;;16.50;84.50;;;;;;5010277;28;20495;-74
2023/01/17 10:02:39;;;;;;;3.00;2.70;;;16.90;79.70;;;;;;5010853;28;20803;-73
2023/01/17 10:05:35;;;;;;;2.60;2.40;;;16.60;80.10;;;;;;5001065;28;20452;-74
2023/01/17 10:08:03;;;;;;;2.80;2.50;;;16.90;76.40;;;;;;5008816;28;20434;-74
2023/01/17 10:11:01;;;;;;;4.07;2.23;;;18.20;71.20;;;;;;5010125;28;20557;-74
2023/01/17 10:13:47;;;;;;;3.90;2.90;;;17.40;67.10;;;;;;4965928;28;20434;-72
2023/01/17 10:16:43;;;;;;;2.83;2.40;;;17.20;68.60;;;;;;5010560;28;20469;-74
2023/01/17 10:19:21;;;;;;;3.40;2.43;;;17.50;66.60;;;;;;5007671;28;20425;-74
2023/01/17 10:21:49;;;;;;;2.33;2.13;;;18.80;64.90;;;;;;5010613;28;20440;-74
2023/01/17 10:24:39;;;;;;;6.00;1.90;;;18.10;58.90;;;;;;5011166;28;20426;-74
2023/01/17 10:27:18;;;;;;;2.23;2.03;;;18.00;61.00;;;;;;5010676;28;20526;-74
2023/01/17 10:29:46;;;;;;;4.00;2.87;;;17.10;61.70;;;;;;5009074;28;20524;-74
2023/01/17 10:32:13;;;;;;;2.30;2.10;;;16.30;62.80;;;;;;5011611;28;20453;-74
2023/01/17 10:34:45;;;;;;;3.70;3.20;;;17.20;58.40;;;;;;5010683;28;20422;-74
2023/01/17 10:37:25;;;;;;;4.13;2.87;;;16.80;59.60;;;;;;5009290;28;20947;-74
2023/01/17 10:39:54;;;;;;;2.57;2.37;;;15.80;63.50;;;;;;5010465;28;20409;-74
2023/01/17 10:42:40;;;;;;;3.77;2.87;;;17.10;59.40;;;;;;5010275;28;20425;-75
2023/01/17 10:45:19;;;;;;;3.67;2.87;;;17.90;58.90;;;;;;5011146;28;20429;-74
2023/01/17 10:47:52;;;;;;;2.70;2.30;;;18.50;56.80;;;;;;5008047;28;20464;-74
2023/01/17 10:50:20;;;;;;;3.07;2.83;;;18.50;56.60;;;;;;5006000;28;20926;-73
2023/01/17 10:53:18;;;;;;;1.90;1.70;;;18.10;55.60;;;;;;5010489;28;20442;-75
2023/01/17 10:55:54;;;;;;;3.33;2.07;;;17.00;55.80;;;;;;4960799;28;20480;-75
2023/01/17 10:58:20;;;;;;;4.90;2.47;;;17.40;54.50;;;;;;4998160;28;20414;-74
2023/01/17 11:00:56;;;;;;;2.37;2.17;;;17.90;54.80;;;;;;5010892;28;20429;-74
2023/01/17 11:03:23;;;;;;;2.17;1.80;;;19.20;53.20;;;;;;5014701;28;20262;-74
2023/01/17 11:06:14;;;;;;;2.53;2.33;;;19.60;51.00;;;;;;5013526;28;20437;-74
2023/01/17 11:09:12;;;;;;;2.73;2.07;;;19.40;52.20;;;;;;5004513;28;20546;-74
2023/01/17 11:11:49;;;;;;;2.00;1.80;;;20.00;50.20;;;;;;4971048;28;20485;-74
2023/01/17 11:14:19;;;;;;;2.60;1.67;;;19.80;50.20;;;;;;5004109;28;20430;-74
2023/01/17 11:16:56;;;;;;;3.50;2.00;;;18.90;48.00;;;;;;5015131;28;20461;-73
2023/01/17 11:19:34;;;;;;;3.90;1.83;;;19.20;50.60;;;;;;5008981;28;20433;-73
2023/01/17 11:22:03;;;;;;;3.97;2.07;;;19.10;50.00;;;;;;5014822;28;20418;-74
2023/01/17 11:24:41;;;;;;;1.67;1.57;;;18.90;47.80;;;;;;5013700;28;20475;-74
2023/01/17 11:27:21;;;;;;;2.03;1.27;;;18.30;47.70;;;;;;5012394;28;20441;-74
2023/01/17 11:29:47;;;;;;;2.73;1.70;;;18.70;47.60;;;;;;5013288;28;20425;-75
2023/01/17 11:32:33;;;;;;;1.97;1.70;;;17.90;49.20;;;;;;5012817;28;20958;-71
2023/01/17 11:35:24;;;;;;;1.40;1.30;;;17.80;49.60;;;;;;5004024;28;20179;-70
2023/01/17 11:37:55;;;;;;;1.40;1.27;;;18.20;48.60;;;;;;4999769;28;20807;-69
2023/01/17 11:40:26;;;;;;;2.17;1.50;;;18.40;47.60;;;;;;5012306;28;20454;-71
2023/01/17 11:43:13;;;;;;;2.43;1.53;;;18.90;47.70;;;;;;5013500;28;20823;-71
2023/01/17 11:45:39;;;;;;;1.60;1.50;;;19.80;46.00;;;;;;5013152;28;20421;-71
2023/01/17 11:48:08;;;;;;;1.80;1.40;;;18.30;48.20;;;;;;5011053;28;20457;-71
2023/01/17 11:50:37;;;;;;;1.50;1.40;;;19.30;47.60;;;;;;5011863;28;20462;-70
2023/01/17 11:53:13;;;;;;;3.20;1.80;;;19.40;46.00;;;;;;5013912;28;20422;-71
2023/01/17 11:55:39;;;;;;;1.73;1.63;;;18.60;46.60;;;;;;5012660;28;21201;-73
2023/01/17 11:58:05;;;;;;;2.60;2.40;;;19.40;45.20;;;;;;5010744;28;20472;-72
2023/01/17 12:00:40;;;;;;;2.50;1.17;;;17.90;45.50;;;;;;5008866;28;20419;-73
2023/01/17 12:03:43;;;;;;;1.00;1.00;;;17.80;45.60;;;;;;5009891;28;20628;-73
2023/01/17 12:06:20;;;;;;;1.20;1.10;;;18.50;45.80;;;;;;5013854;28;20445;-73
2023/01/17 12:09:28;;;;;;;1.70;1.00;;;18.00;45.00;;;;;;5009312;28;20417;-73
2023/01/17 12:15:35;;;;;;;1.73;1.63;;;17.50;47.30;;;;;;5012636;28;20432;-73
2023/01/17 12:18:32;;;;;;;3.37;1.57;;;19.20;46.90;;;;;;5010719;28;20453;-73
2023/01/17 12:21:38;;;;;;;2.00;1.40;;;18.90;45.40;;;;;;5012147;28;20433;-73
2023/01/17 12:24:34;;;;;;;1.40;1.30;;;18.60;46.60;;;;;;4999349;28;20434;-73
2023/01/17 12:27:22;;;;;;;1.30;1.20;;;17.80;45.00;;;;;;5011959;28;20430;-72
2023/01/17 12:30:16;;;;;;;2.40;1.50;;;15.60;46.20;;;;;;5012037;28;20461;-72
2023/01/17 12:33:06;;;;;;;1.80;1.50;;;14.40;48.70;;;;;;5012348;28;20802;-72
2023/01/17 12:35:44;;;;;;;1.10;1.00;;;14.20;49.20;;;;;;5012809;28;20392;-72
2023/01/17 12:38:17;;;;;;;3.63;1.60;;;13.60;50.50;;;;;;5009033;28;20438;-72
2023/01/17 12:41:09;;;;;;;1.20;1.10;;;12.90;52.20;;;;;;5012976;28;20418;-72
2023/01/17 12:43:41;;;;;;;2.60;1.43;;;12.50;53.50;;;;;;5011611;28;20429;-72
2023/01/17 12:46:37;;;;;;;1.20;1.10;;;11.80;54.50;;;;;;5013174;28;20580;-74
2023/01/17 12:49:35;;;;;;;2.17;1.53;;;10.80;56.50;;;;;;5007932;28;20449;-73
2023/01/17 12:52:16;;;;;;;2.60;1.20;;;9.90;57.40;;;;;;5012651;28;20461;-73
2023/01/17 12:54:46;;;;;;;1.97;1.37;;;9.60;59.40;;;;;;5012174;28;20434;-73
2023/01/17 12:57:17;;;;;;;2.00;1.30;;;9.70;59.70;;;;;;5011057;28;20807;-72
2023/01/17 13:00:03;;;;;;;1.80;1.70;;;9.40;62.90;;;;;;5011994;28;20422;-71
2023/01/17 13:02:48;;;;;;;1.53;1.20;;;8.70;65.30;;;;;;5012695;28;20433;-72
2023/01/17 13:05:22;;;;;;;1.30;1.20;;;8.00;69.10;;;;;;5012929;28;20425;-72
2023/01/17 13:08:09;;;;;;;1.53;1.10;;;7.40;72.40;;;;;;5008265;28;20544;-72
2023/01/17 13:10:46;;;;;;;1.30;0.90;;;7.00;78.80;;;;;;5012040;28;20491;-72
2023/01/17 13:13:21;;;;;;;1.23;1.10;;;7.00;83.80;;;;;;5012021;28;20453;-72
2023/01/17 13:15:49;;;;;;;1.27;1.03;;;6.90;82.60;;;;;;5012297;28;20771;-72
2023/01/17 13:18:21;;;;;;;2.40;1.17;;;6.70;88.50;;;;;;5008347;28;20425;-72
2023/01/17 13:21:03;;;;;;;1.47;1.20;;;6.70;87.10;;;;;;5011716;28;20458;-72
2023/01/17 13:23:39;;;;;;;1.33;1.00;;;6.60;87.30;;;;;;5011782;28;20846;-72
2023/01/17 13:26:17;;;;;;;2.60;0.90;;;6.40;88.10;;;;;;5011386;28;20448;-72
2023/01/17 13:29:04;;;;;;;1.20;1.10;;;6.40;90.00;;;;;;5008457;28;20501;-72
2023/01/17 13:31:43;;;;;;;1.03;0.80;;;6.40;91.40;;;;;;5011328;28;20520;-72
2023/01/17 13:34:23;;;;;;;1.00;0.90;;;6.30;91.60;;;;;;5011750;28;20425;-72
2023/01/17 13:37:06;;;;;;;4.50;1.00;;;6.20;91.00;;;;;;5012185;28;20437;-72
2023/01/17 13:40:03;;;;;;;2.10;1.27;;;6.10;91.30;;;;;;5004951;28;20417;-72
2023/01/17 13:42:52;;;;;;;1.20;1.10;;;6.10;91.90;;;;;;5012260;28;20548;-72
2023/01/17 13:45:35;;;;;;;2.33;1.10;;;6.00;92.70;;;;;;5000339;28;20477;-73
2023/01/17 13:48:13;;;;;;;2.63;0.93;;;6.20;92.30;;;;;;4998045;28;20421;-71
2023/01/17 13:50:54;;;;;;;2.27;0.83;;;6.30;93.20;;;;;;5010781;28;20457;-73
2023/01/17 13:53:38;;;;;;;0.90;0.90;;;6.30;91.80;;;;;;5011991;28;20418;-72
2023/01/17 13:56:18;;;;;;;3.37;1.30;;;6.30;92.10;;;;;;4993108;28;20445;-72
2023/01/17 13:58:48;;;;;;;1.93;1.70;;;6.10;91.80;;;;;;5007757;28;20436;-72
2023/01/17 14:01:37;;;;;;;2.60;1.57;;;5.90;93.30;;;;;;5011098;28;20422;-72
2023/01/17 14:04:12;;;;;;;2.83;1.70;;;5.80;94.00;;;;;;4976473;28;20438;-72
2023/01/17 14:06:51;;;;;;;1.30;1.10;;;5.80;94.60;;;;;;4992236;28;21030;-73
2023/01/17 14:09:39;;;;;;;1.57;1.20;;;5.70;94.30;;;;;;5006106;28;20436;-72
2023/01/17 14:12:07;;;;;;;2.10;1.50;;;5.70;94.90;;;;;;5011563;28;20463;-72
2023/01/17 14:14:40;;;;;;;3.50;1.70;;;5.80;95.50;;;;;;5010828;28;20816;-72
2023/01/17 14:17:15;;;;;;;1.53;1.43;;;5.70;95.10;;;;;;5010544;28;20818;-73
2023/01/17 14:19:46;;;;;;;2.37;1.77;;;5.50;96.10;;;;;;5008807;28;20483;-72
2023/01/17 14:22:17;;;;;;;3.80;2.07;;;5.50;97.10;;;;;;4991900;28;20414;-72
2023/01/17 14:24:57;;;;;;;1.83;1.67;;;5.40;97.40;;;;;;4992115;28;20454;-73
2023/01/17 14:27:24;;;;;;;3.63;2.37;;;5.40;98.60;;;;;;4994461;28;20449;-72
2023/01/17 14:29:57;;;;;;;2.33;2.13;;;5.40;98.60;;;;;;5010402;28;20489;-72
2023/01/17 14:32:35;;;;;;;2.70;1.70;;;5.30;98.70;;;;;;5010398;28;20508;-71
2023/01/17 14:35:02;;;;;;;3.57;2.17;;;5.30;98.80;;;;;;4991733;28;20421;-72
2023/01/17 14:37:36;;;;;;;4.30;2.60;;;5.30;99.60;;;;;;4995609;28;20520;-72
2023/01/17 14:40:14;;;;;;;3.03;1.97;;;5.30;99.80;;;;;;5012616;28;20435;-71
2023/01/17 14:42:41;;;;;;;5.30;1.90;;;5.30;99.90;;;;;;5015132;28;20423;-72
2023/01/17 14:45:08;;;;;;;2.00;1.80;;;5.30;98.60;;;;;;5013892;28;20427;-71